Troy, North Carolina
Current Conditions -  °F | °C
As of 1:35 PM on Monday 26 Jan 2015 (Local Time) from KVUJ Reporting Station
Overcast Overcast  
Wind Chill: 45°   Ceiling: 4300
Heat Index: 49°   Visibility: 10mi
Dew Point: 39°   Wind: 8mph
Humidity: 69%   Direction: 340°NNW
Pressure: 29.65"   Gusts: NA
Location:  35.36°N, 79.89°W
Report Text: KVUJ 261835Z AUTO 34007KT 10SM BKN043 OVC050 09/04 A2965 RMK AO2 T00940040
Loading
Personal Weather Stations






























Interactive Weather Map New forecast layout! Learn more

10-Day Weather Forecast

Advertisements
Track Severe Weather on mobile